Chardon, Ohio
Current Conditions -  °F | °C
As of 10:45 AM on Monday 24 Nov 2014 (Local Time) from KCGF Reporting Station
Broken Clouds Broken Clouds  
Wind Chill: 18°   Ceiling: 3000
Heat Index: 18°   Visibility: 10mi
Dew Point: 12°   Wind: 23mph
Humidity: 68%   Direction: 190°S
Pressure: 29.24"   Gusts: 39mph
Location:  41.61°N, 81.15°W
Report Text: KCGF 241545Z 19020G34KT 10SM BKN030 BKN070 18/12 A2924
Loading
Personal Weather Stations






























Interactive Weather Map New forecast layout! Learn more

10-Day Weather Forecast

Advertisements
Track Severe Weather on mobile